sensor_id;sensor_type;location;lat;lon;timestamp;temperature;humidity
14901;DHT22;7542;49.078;9.194;2023-12-20T00:00:36;29.10;46.10
14901;DHT22;7542;49.078;9.194;2023-12-20T00:01:39;29.20;46.10
14901;DHT22;7542;49.078;9.194;2023-12-20T00:02:41;29.20;46.20
14901;DHT22;7542;49.078;9.194;2023-12-20T00:03:48;29.20;46.20
14901;DHT22;7542;49.078;9.194;2023-12-20T00:04:50;29.20;46.10
14901;DHT22;7542;49.078;9.194;2023-12-20T00:05:52;29.30;46.10
14901;DHT22;7542;49.078;9.194;2023-12-20T00:06:54;29.40;46.00
14901;DHT22;7542;49.078;9.194;2023-12-20T00:07:56;29.30;45.90
14901;DHT22;7542;49.078;9.194;2023-12-20T00:08:58;29.30;45.90
14901;DHT22;7542;49.078;9.194;2023-12-20T00:10:00;29.30;45.90
14901;DHT22;7542;49.078;9.194;2023-12-20T00:11:02;29.40;46.00
14901;DHT22;7542;49.078;9.194;2023-12-20T00:12:04;29.40;43.90
14901;DHT22;7542;49.078;9.194;2023-12-20T00:13:06;29.20;42.90
14901;DHT22;7542;49.078;9.194;2023-12-20T00:14:09;29.10;42.50
14901;DHT22;7542;49.078;9.194;2023-12-20T00:15:11;29.00;41.80
14901;DHT22;7542;49.078;9.194;2023-12-20T00:16:13;28.70;41.10
14901;DHT22;7542;49.078;9.194;2023-12-20T00:17:15;28.80;41.10
14901;DHT22;7542;49.078;9.194;2023-12-20T00:18:17;28.60;41.10
14901;DHT22;7542;49.078;9.194;2023-12-20T00:19:19;28.40;40.80
14901;DHT22;7542;49.078;9.194;2023-12-20T00:20:21;28.30;40.50
14901;DHT22;7542;49.078;9.194;2023-12-20T00:21:23;28.20;40.70
14901;DHT22;7542;49.078;9.194;2023-12-20T00:22:25;28.10;40.80
14901;DHT22;7542;49.078;9.194;2023-12-20T00:23:27;28.00;40.70
14901;DHT22;7542;49.078;9.194;2023-12-20T00:24:29;27.90;40.40
14901;DHT22;7542;49.078;9.194;2023-12-20T00:25:31;27.80;40.60
14901;DHT22;7542;49.078;9.194;2023-12-20T00:26:33;27.80;40.60
14901;DHT22;7542;49.078;9.194;2023-12-20T00:27:35;27.50;40.40
14901;DHT22;7542;49.078;9.194;2023-12-20T00:28:36;27.70;40.80
14901;DHT22;7542;49.078;9.194;2023-12-20T00:29:39;27.60;40.90
14901;DHT22;7542;49.078;9.194;2023-12-20T00:30:41;27.50;40.70
14901;DHT22;7542;49.078;9.194;2023-12-20T00:31:43;27.40;40.90
14901;DHT22;7542;49.078;9.194;2023-12-20T00:32:45;27.40;40.50
14901;DHT22;7542;49.078;9.194;2023-12-20T00:33:50;27.30;40.60
14901;DHT22;7542;49.078;9.194;2023-12-20T00:34:52;27.30;41.40
14901;DHT22;7542;49.078;9.194;2023-12-20T00:35:57;27.20;40.70
14901;DHT22;7542;49.078;9.194;2023-12-20T00:36:59;27.10;40.60
14901;DHT22;7542;49.078;9.194;2023-12-20T00:38:01;27.10;40.80
14901;DHT22;7542;49.078;9.194;2023-12-20T00:39:03;27.00;41.00
14901;DHT22;7542;49.078;9.194;2023-12-20T00:40:06;26.90;40.70
14901;DHT22;7542;49.078;9.194;2023-12-20T00:41:08;26.90;40.80
14901;DHT22;7542;49.078;9.194;2023-12-20T00:42:11;26.70;40.90
14901;DHT22;7542;49.078;9.194;2023-12-20T00:43:12;26.70;40.90
14901;DHT22;7542;49.078;9.194;2023-12-20T00:44:14;26.70;40.90
14901;DHT22;7542;49.078;9.194;2023-12-20T00:45:16;26.60;40.90
14901;DHT22;7542;49.078;9.194;2023-12-20T00:46:18;26.60;40.90
14901;DHT22;7542;49.078;9.194;2023-12-20T00:47:21;26.50;40.90
14901;DHT22;7542;49.078;9.194;2023-12-20T00:48:23;26.50;40.90
14901;DHT22;7542;49.078;9.194;2023-12-20T00:49:25;26.50;40.90
14901;DHT22;7542;49.078;9.194;2023-12-20T00:50:27;26.50;41.00
14901;DHT22;7542;49.078;9.194;2023-12-20T00:51:31;26.40;41.20
14901;DHT22;7542;49.078;9.194;2023-12-20T00:52:33;26.30;41.30
14901;DHT22;7542;49.078;9.194;2023-12-20T00:53:34;26.30;41.50
14901;DHT22;7542;49.078;9.194;2023-12-20T00:54:36;26.20;41.60
14901;DHT22;7542;49.078;9.194;2023-12-20T00:55:38;26.20;41.70
14901;DHT22;7542;49.078;9.194;2023-12-20T00:56:40;26.20;41.90
14901;DHT22;7542;49.078;9.194;2023-12-20T00:57:42;26.20;41.70
14901;DHT22;7542;49.078;9.194;2023-12-20T00:58:45;26.10;41.70
14901;DHT22;7542;49.078;9.194;2023-12-20T00:59:46;26.10;41.80
14901;DHT22;7542;49.078;9.194;2023-12-20T01:00:48;26.10;41.90
14901;DHT22;7542;49.078;9.194;2023-12-20T01:01:50;26.00;42.00
14901;DHT22;7542;49.078;9.194;2023-12-20T01:02:53;26.00;42.00
14901;DHT22;7542;49.078;9.194;2023-12-20T01:03:54;26.00;42.10
14901;DHT22;7542;49.078;9.194;2023-12-20T01:04:57;26.00;42.10
14901;DHT22;7542;49.078;9.194;2023-12-20T01:05:59;25.90;41.90
14901;DHT22;7542;49.078;9.194;2023-12-20T01:07:01;25.90;42.00
14901;DHT22;7542;49.078;9.194;2023-12-20T01:08:04;25.90;42.00
14901;DHT22;7542;49.078;9.194;2023-12-20T01:09:06;25.90;42.00
14901;DHT22;7542;49.078;9.194;2023-12-20T01:10:08;25.80;42.00
14901;DHT22;7542;49.078;9.194;2023-12-20T01:11:11;25.80;42.00
14901;DHT22;7542;49.078;9.194;2023-12-20T01:12:13;25.80;42.20
14901;DHT22;7542;49.078;9.194;2023-12-20T01:13:15;25.70;42.20
14901;DHT22;7542;49.078;9.194;2023-12-20T01:14:17;25.70;42.20
14901;DHT22;7542;49.078;9.194;2023-12-20T01:15:19;25.70;42.30
14901;DHT22;7542;49.078;9.194;2023-12-20T01:16:20;25.70;42.30
14901;DHT22;7542;49.078;9.194;2023-12-20T01:17:23;25.70;42.30
14901;DHT22;7542;49.078;9.194;2023-12-20T01:18:25;25.60;42.40
14901;DHT22;7542;49.078;9.194;2023-12-20T01:19:27;25.60;42.40
14901;DHT22;7542;49.078;9.194;2023-12-20T01:20:30;25.60;42.50
14901;DHT22;7542;49.078;9.194;2023-12-20T01:21:31;25.60;42.50
14901;DHT22;7542;49.078;9.194;2023-12-20T01:22:33;25.50;42.60
14901;DHT22;7542;49.078;9.194;2023-12-20T01:23:37;25.50;42.60
14901;DHT22;7542;49.078;9.194;2023-12-20T01:24:39;25.50;42.70
14901;DHT22;7542;49.078;9.194;2023-12-20T01:25:41;25.50;42.70
14901;DHT22;7542;49.078;9.194;2023-12-20T01:26:42;25.50;42.70
14901;DHT22;7542;49.078;9.194;2023-12-20T01:27:45;25.50;42.70
14901;DHT22;7542;49.078;9.194;2023-12-20T01:28:47;25.50;42.80
14901;DHT22;7542;49.078;9.194;2023-12-20T01:29:49;25.40;42.80
14901;DHT22;7542;49.078;9.194;2023-12-20T01:30:51;25.30;42.80
14901;DHT22;7542;49.078;9.194;2023-12-20T01:31:53;25.90;42.90
14901;DHT22;7542;49.078;9.194;2023-12-20T01:32:55;25.30;42.90
14901;DHT22;7542;49.078;9.194;2023-12-20T01:33:56;25.30;42.90
14901;DHT22;7542;49.078;9.194;2023-12-20T01:34:58;25.30;42.90
14901;DHT22;7542;49.078;9.194;2023-12-20T01:36:04;25.30;43.00
14901;DHT22;7542;49.078;9.194;2023-12-20T01:37:06;25.30;43.00
14901;DHT22;7542;49.078;9.194;2023-12-20T01:38:08;25.20;43.00
14901;DHT22;7542;49.078;9.194;2023-12-20T01:39:10;25.20;43.10
14901;DHT22;7542;49.078;9.194;2023-12-20T01:40:25;25.30;43.10
14901;DHT22;7542;49.078;9.194;2023-12-20T01:41:27;25.20;43.20
14901;DHT22;7542;49.078;9.194;2023-12-20T01:42:29;25.10;43.20
14901;DHT22;7542;49.078;9.194;2023-12-20T01:43:31;25.10;43.20
14901;DHT22;7542;49.078;9.194;2023-12-20T01:44:48;25.10;43.30
14901;DHT22;7542;49.078;9.194;2023-12-20T01:45:50;25.10;43.30
14901;DHT22;7542;49.078;9.194;2023-12-20T01:46:52;25.10;43.30
14901;DHT22;7542;49.078;9.194;2023-12-20T01:47:57;25.10;43.30
14901;DHT22;7542;49.078;9.194;2023-12-20T01:49:00;25.10;43.40
14901;DHT22;7542;49.078;9.194;2023-12-20T01:50:02;25.00;43.40
14901;DHT22;7542;49.078;9.194;2023-12-20T01:51:05;25.00;43.50
14901;DHT22;7542;49.078;9.194;2023-12-20T01:52:08;25.00;43.50
14901;DHT22;7542;49.078;9.194;2023-12-20T01:53:14;25.00;43.50
14901;DHT22;7542;49.078;9.194;2023-12-20T01:54:17;25.00;43.50
14901;DHT22;7542;49.078;9.194;2023-12-20T01:55:21;25.00;43.50
14901;DHT22;7542;49.078;9.194;2023-12-20T01:56:24;25.00;43.50
14901;DHT22;7542;49.078;9.194;2023-12-20T01:57:30;25.00;43.50
14901;DHT22;7542;49.078;9.194;2023-12-20T01:58:33;25.00;43.60
14901;DHT22;7542;49.078;9.194;2023-12-20T01:59:35;28.20;45.00
14901;DHT22;7542;49.078;9.194;2023-12-20T02:00:38;24.90;43.60
14901;DHT22;7542;49.078;9.194;2023-12-20T02:01:40;24.80;43.60
14901;DHT22;7542;49.078;9.194;2023-12-20T02:02:43;24.90;43.60
14901;DHT22;7542;49.078;9.194;2023-12-20T02:03:46;24.80;43.60
14901;DHT22;7542;49.078;9.194;2023-12-20T02:04:49;24.90;43.70
14901;DHT22;7542;49.078;9.194;2023-12-20T02:05:53;24.80;43.60
14901;DHT22;7542;49.078;9.194;2023-12-20T02:06:56;24.80;43.60
14901;DHT22;7542;49.078;9.194;2023-12-20T02:07:58;24.80;43.70
14901;DHT22;7542;49.078;9.194;2023-12-20T02:09:00;24.80;43.70
14901;DHT22;7542;49.078;9.194;2023-12-20T02:10:02;24.80;43.80
14901;DHT22;7542;49.078;9.194;2023-12-20T02:11:07;24.80;43.80
14901;DHT22;7542;49.078;9.194;2023-12-20T02:12:09;24.70;43.80
14901;DHT22;7542;49.078;9.194;2023-12-20T02:13:11;24.70;43.80
14901;DHT22;7542;49.078;9.194;2023-12-20T02:14:13;24.80;43.80
14901;DHT22;7542;49.078;9.194;2023-12-20T02:15:15;24.70;43.80
14901;DHT22;7542;49.078;9.194;2023-12-20T02:16:18;25.10;43.90
14901;DHT22;7542;49.078;9.194;2023-12-20T02:17:20;24.70;43.90
14901;DHT22;7542;49.078;9.194;2023-12-20T02:18:22;24.70;43.90
14901;DHT22;7542;49.078;9.194;2023-12-20T02:19:25;24.70;43.90
14901;DHT22;7542;49.078;9.194;2023-12-20T02:20:27;24.80;43.90
14901;DHT22;7542;49.078;9.194;2023-12-20T02:21:33;24.70;43.90
14901;DHT22;7542;49.078;9.194;2023-12-20T02:22:36;24.70;43.90
14901;DHT22;7542;49.078;9.194;2023-12-20T02:23:38;24.70;43.90
14901;DHT22;7542;49.078;9.194;2023-12-20T02:24:40;24.70;43.90
14901;DHT22;7542;49.078;9.194;2023-12-20T02:25:42;24.70;43.90
14901;DHT22;7542;49.078;9.194;2023-12-20T02:26:44;24.60;43.80
14901;DHT22;7542;49.078;9.194;2023-12-20T02:27:48;24.70;43.90
14901;DHT22;7542;49.078;9.194;2023-12-20T02:28:51;24.70;43.90
14901;DHT22;7542;49.078;9.194;2023-12-20T02:29:53;24.60;43.90
14901;DHT22;7542;49.078;9.194;2023-12-20T02:30:55;24.60;43.90
14901;DHT22;7542;49.078;9.194;2023-12-20T02:31:57;24.60;43.90
14901;DHT22;7542;49.078;9.194;2023-12-20T02:33:03;24.60;43.90
14901;DHT22;7542;49.078;9.194;2023-12-20T02:34:10;24.50;43.90
14901;DHT22;7542;49.078;9.194;2023-12-20T02:35:12;24.50;43.90
14901;DHT22;7542;49.078;9.194;2023-12-20T02:36:14;24.60;43.90
14901;DHT22;7542;49.078;9.194;2023-12-20T02:37:16;24.60;44.00
14901;DHT22;7542;49.078;9.194;2023-12-20T02:38:18;24.50;44.00
14901;DHT22;7542;49.078;9.194;2023-12-20T02:39:21;24.50;44.00
14901;DHT22;7542;49.078;9.194;2023-12-20T02:40:24;24.50;44.00
14901;DHT22;7542;49.078;9.194;2023-12-20T02:41:25;24.50;44.00
14901;DHT22;7542;49.078;9.194;2023-12-20T02:42:27;24.50;44.00
14901;DHT22;7542;49.078;9.194;2023-12-20T02:43:29;24.50;44.10
14901;DHT22;7542;49.078;9.194;2023-12-20T02:44:31;24.50;44.00
14901;DHT22;7542;49.078;9.194;2023-12-20T02:45:33;23.00;43.30
14901;DHT22;7542;49.078;9.194;2023-12-20T02:46:35;24.40;43.90
14901;DHT22;7542;49.078;9.194;2023-12-20T02:47:37;24.40;44.00
14901;DHT22;7542;49.078;9.194;2023-12-20T02:48:38;24.50;44.10
14901;DHT22;7542;49.078;9.194;2023-12-20T02:49:41;24.40;44.10
14901;DHT22;7542;49.078;9.194;2023-12-20T02:50:43;24.40;44.10
14901;DHT22;7542;49.078;9.194;2023-12-20T02:51:44;24.50;44.20
14901;DHT22;7542;49.078;9.194;2023-12-20T02:52:46;24.40;44.10
14901;DHT22;7542;49.078;9.194;2023-12-20T02:53:48;24.40;44.10
14901;DHT22;7542;49.078;9.194;2023-12-20T02:54:50;26.50;44.70
14901;DHT22;7542;49.078;9.194;2023-12-20T02:55:52;24.40;44.10
14901;DHT22;7542;49.078;9.194;2023-12-20T02:56:54;24.40;44.10
14901;DHT22;7542;49.078;9.194;2023-12-20T02:57:56;24.40;44.10
14901;DHT22;7542;49.078;9.194;2023-12-20T02:58:58;24.40;44.10
14901;DHT22;7542;49.078;9.194;2023-12-20T03:00:00;24.40;44.10
14901;DHT22;7542;49.078;9.194;2023-12-20T03:01:02;24.30;44.20
14901;DHT22;7542;49.078;9.194;2023-12-20T03:02:04;24.40;44.20
14901;DHT22;7542;49.078;9.194;2023-12-20T03:03:06;24.30;44.20
14901;DHT22;7542;49.078;9.194;2023-12-20T03:04:08;24.30;44.20
14901;DHT22;7542;49.078;9.194;2023-12-20T03:05:10;24.40;44.20
14901;DHT22;7542;49.078;9.194;2023-12-20T03:06:18;24.40;44.20
14901;DHT22;7542;49.078;9.194;2023-12-20T03:07:20;24.30;44.30
14901;DHT22;7542;49.078;9.194;2023-12-20T03:08:23;24.30;44.30
14901;DHT22;7542;49.078;9.194;2023-12-20T03:09:25;24.30;44.30
14901;DHT22;7542;49.078;9.194;2023-12-20T03:10:27;24.40;44.30
14901;DHT22;7542;49.078;9.194;2023-12-20T03:11:29;24.30;44.40
14901;DHT22;7542;49.078;9.194;2023-12-20T03:12:31;24.30;44.40
14901;DHT22;7542;49.078;9.194;2023-12-20T03:13:32;24.30;44.40
14901;DHT22;7542;49.078;9.194;2023-12-20T03:14:34;24.30;44.40
14901;DHT22;7542;49.078;9.194;2023-12-20T03:15:36;24.30;44.40
14901;DHT22;7542;49.078;9.194;2023-12-20T03:16:39;24.30;44.40
14901;DHT22;7542;49.078;9.194;2023-12-20T03:17:41;24.30;44.50
14901;DHT22;7542;49.078;9.194;2023-12-20T03:18:43;24.30;44.40
14901;DHT22;7542;49.078;9.194;2023-12-20T03:19:45;24.20;44.40
14901;DHT22;7542;49.078;9.194;2023-12-20T03:20:47;24.30;44.40
14901;DHT22;7542;49.078;9.194;2023-12-20T03:21:51;24.40;44.40
14901;DHT22;7542;49.078;9.194;2023-12-20T03:22:55;24.50;44.50
14901;DHT22;7542;49.078;9.194;2023-12-20T03:23:57;24.90;44.70
14901;DHT22;7542;49.078;9.194;2023-12-20T03:24:59;24.20;44.40
14901;DHT22;7542;49.078;9.194;2023-12-20T03:26:01;25.70;44.80
14901;DHT22;7542;49.078;9.194;2023-12-20T03:27:03;24.20;44.50
14901;DHT22;7542;49.078;9.194;2023-12-20T03:28:05;24.20;44.50
14901;DHT22;7542;49.078;9.194;2023-12-20T03:29:07;24.20;44.50
14901;DHT22;7542;49.078;9.194;2023-12-20T03:30:09;24.20;44.50
14901;DHT22;7542;49.078;9.194;2023-12-20T03:31:11;24.20;44.60
14901;DHT22;7542;49.078;9.194;2023-12-20T03:32:14;24.20;44.60
14901;DHT22;7542;49.078;9.194;2023-12-20T03:33:15;24.20;44.60
14901;DHT22;7542;49.078;9.194;2023-12-20T03:34:17;24.20;44.70
14901;DHT22;7542;49.078;9.194;2023-12-20T03:35:19;24.20;44.70
14901;DHT22;7542;49.078;9.194;2023-12-20T03:36:21;24.10;44.60
14901;DHT22;7542;49.078;9.194;2023-12-20T03:37:23;24.10;44.70
14901;DHT22;7542;49.078;9.194;2023-12-20T03:38:25;24.10;44.70
14901;DHT22;7542;49.078;9.194;2023-12-20T03:39:27;24.20;44.70
14901;DHT22;7542;49.078;9.194;2023-12-20T03:40:28;24.10;44.80
14901;DHT22;7542;49.078;9.194;2023-12-20T03:41:30;24.10;44.80
14901;DHT22;7542;49.078;9.194;2023-12-20T03:42:32;24.10;44.80
14901;DHT22;7542;49.078;9.194;2023-12-20T03:43:34;24.10;44.80
14901;DHT22;7542;49.078;9.194;2023-12-20T03:44:39;24.50;45.00
14901;DHT22;7542;49.078;9.194;2023-12-20T03:45:42;24.10;44.90
14901;DHT22;7542;49.078;9.194;2023-12-20T03:46:44;24.10;44.80
14901;DHT22;7542;49.078;9.194;2023-12-20T03:47:47;24.10;44.80
14901;DHT22;7542;49.078;9.194;2023-12-20T03:48:50;24.10;44.90
14901;DHT22;7542;49.078;9.194;2023-12-20T03:49:53;24.10;44.90
14901;DHT22;7542;49.078;9.194;2023-12-20T03:50:55;24.10;44.80
14901;DHT22;7542;49.078;9.194;2023-12-20T03:51:56;24.10;44.80
14901;DHT22;7542;49.078;9.194;2023-12-20T03:52:58;24.10;44.90
14901;DHT22;7542;49.078;9.194;2023-12-20T03:54:00;24.00;44.80
14901;DHT22;7542;49.078;9.194;2023-12-20T03:55:02;24.00;44.80
14901;DHT22;7542;49.078;9.194;2023-12-20T03:56:05;24.00;44.80
14901;DHT22;7542;49.078;9.194;2023-12-20T03:57:07;24.00;44.90
14901;DHT22;7542;49.078;9.194;2023-12-20T03:58:09;24.00;44.90
14901;DHT22;7542;49.078;9.194;2023-12-20T03:59:10;24.00;44.90
14901;DHT22;7542;49.078;9.194;2023-12-20T04:00:13;24.00;44.90
14901;DHT22;7542;49.078;9.194;2023-12-20T04:01:15;24.00;45.00
14901;DHT22;7542;49.078;9.194;2023-12-20T04:02:17;24.00;44.90
14901;DHT22;7542;49.078;9.194;2023-12-20T04:03:19;24.00;44.90
14901;DHT22;7542;49.078;9.194;2023-12-20T04:04:21;24.00;44.90
14901;DHT22;7542;49.078;9.194;2023-12-20T04:05:23;23.90;44.90
14901;DHT22;7542;49.078;9.194;2023-12-20T04:06:25;24.00;44.90
14901;DHT22;7542;49.078;9.194;2023-12-20T04:07:27;24.20;45.00
14901;DHT22;7542;49.078;9.194;2023-12-20T04:08:29;24.00;45.00
14901;DHT22;7542;49.078;9.194;2023-12-20T04:09:31;23.90;45.00
14901;DHT22;7542;49.078;9.194;2023-12-20T04:10:33;23.90;45.00
14901;DHT22;7542;49.078;9.194;2023-12-20T04:11:36;24.80;45.40
14901;DHT22;7542;49.078;9.194;2023-12-20T04:12:38;25.20;45.40
14901;DHT22;7542;49.078;9.194;2023-12-20T04:13:41;23.90;45.00
14901;DHT22;7542;49.078;9.194;2023-12-20T04:14:42;23.90;45.00
14901;DHT22;7542;49.078;9.194;2023-12-20T04:15:44;23.90;45.00
14901;DHT22;7542;49.078;9.194;2023-12-20T04:16:46;23.90;45.10
14901;DHT22;7542;49.078;9.194;2023-12-20T04:17:48;23.90;45.10
14901;DHT22;7542;49.078;9.194;2023-12-20T04:18:51;24.50;45.30
14901;DHT22;7542;49.078;9.194;2023-12-20T04:19:53;23.90;45.10
14901;DHT22;7542;49.078;9.194;2023-12-20T04:20:55;23.90;45.10
14901;DHT22;7542;49.078;9.194;2023-12-20T04:21:57;23.90;45.10
14901;DHT22;7542;49.078;9.194;2023-12-20T04:22:59;27.20;46.40
14901;DHT22;7542;49.078;9.194;2023-12-20T04:24:01;23.90;45.10
14901;DHT22;7542;49.078;9.194;2023-12-20T04:25:02;23.90;45.10
14901;DHT22;7542;49.078;9.194;2023-12-20T04:26:05;23.90;45.10
14901;DHT22;7542;49.078;9.194;2023-12-20T04:27:07;23.90;45.10
14901;DHT22;7542;49.078;9.194;2023-12-20T04:28:09;23.90;45.10
14901;DHT22;7542;49.078;9.194;2023-12-20T04:29:11;23.80;45.10
14901;DHT22;7542;49.078;9.194;2023-12-20T04:30:13;23.90;45.20
14901;DHT22;7542;49.078;9.194;2023-12-20T04:31:15;25.70;45.60
14901;DHT22;7542;49.078;9.194;2023-12-20T04:32:17;23.90;45.10
14901;DHT22;7542;49.078;9.194;2023-12-20T04:33:19;23.90;45.10
14901;DHT22;7542;49.078;9.194;2023-12-20T04:34:22;24.10;45.20
14901;DHT22;7542;49.078;9.194;2023-12-20T04:35:24;23.90;45.10
14901;DHT22;7542;49.078;9.194;2023-12-20T04:36:26;23.90;45.10
14901;DHT22;7542;49.078;9.194;2023-12-20T04:37:28;23.90;45.10
14901;DHT22;7542;49.078;9.194;2023-12-20T04:38:30;23.90;45.10
14901;DHT22;7542;49.078;9.194;2023-12-20T04:39:32;23.90;45.10
14901;DHT22;7542;49.078;9.194;2023-12-20T04:40:34;23.80;45.00
14901;DHT22;7542;49.078;9.194;2023-12-20T04:41:36;23.90;45.10
14901;DHT22;7542;49.078;9.194;2023-12-20T04:42:38;23.90;45.10
14901;DHT22;7542;49.078;9.194;2023-12-20T04:43:40;26.20;45.90
14901;DHT22;7542;49.078;9.194;2023-12-20T04:44:42;26.70;46.00
14901;DHT22;7542;49.078;9.194;2023-12-20T04:45:45;23.90;45.10
14901;DHT22;7542;49.078;9.194;2023-12-20T04:46:47;23.90;45.10
14901;DHT22;7542;49.078;9.194;2023-12-20T04:47:49;23.90;45.10
14901;DHT22;7542;49.078;9.194;2023-12-20T04:48:51;24.00;45.10
14901;DHT22;7542;49.078;9.194;2023-12-20T04:49:53;24.10;45.20
14901;DHT22;7542;49.078;9.194;2023-12-20T04:50:55;23.80;45.10
14901;DHT22;7542;49.078;9.194;2023-12-20T04:51:57;23.80;45.10
14901;DHT22;7542;49.078;9.194;2023-12-20T04:52:59;23.80;45.10
14901;DHT22;7542;49.078;9.194;2023-12-20T04:54:02;23.80;45.10
14901;DHT22;7542;49.078;9.194;2023-12-20T04:55:04;23.80;45.10
14901;DHT22;7542;49.078;9.194;2023-12-20T04:56:06;23.70;45.10
14901;DHT22;7542;49.078;9.194;2023-12-20T04:57:08;23.80;45.10
14901;DHT22;7542;49.078;9.194;2023-12-20T04:58:10;23.80;45.10
14901;DHT22;7542;49.078;9.194;2023-12-20T04:59:12;23.80;45.10
14901;DHT22;7542;49.078;9.194;2023-12-20T05:00:15;23.80;44.90
14901;DHT22;7542;49.078;9.194;2023-12-20T05:01:18;23.80;44.80
14901;DHT22;7542;49.078;9.194;2023-12-20T05:02:20;23.90;44.90
14901;DHT22;7542;49.078;9.194;2023-12-20T05:03:22;25.90;45.30
14901;DHT22;7542;49.078;9.194;2023-12-20T05:04:24;23.90;44.80
14901;DHT22;7542;49.078;9.194;2023-12-20T05:05:26;23.90;44.80
14901;DHT22;7542;49.078;9.194;2023-12-20T05:06:28;23.90;44.70
14901;DHT22;7542;49.078;9.194;2023-12-20T05:07:30;23.90;44.70
14901;DHT22;7542;49.078;9.194;2023-12-20T05:08:32;23.90;44.70
14901;DHT22;7542;49.078;9.194;2023-12-20T05:09:34;23.90;44.70
14901;DHT22;7542;49.078;9.194;2023-12-20T05:10:36;24.40;44.90
14901;DHT22;7542;49.078;9.194;2023-12-20T05:11:38;23.90;44.70
14901;DHT22;7542;49.078;9.194;2023-12-20T05:12:40;25.00;45.10
14901;DHT22;7542;49.078;9.194;2023-12-20T05:13:42;24.00;44.70
14901;DHT22;7542;49.078;9.194;2023-12-20T05:14:52;23.90;44.60
14901;DHT22;7542;49.078;9.194;2023-12-20T05:15:54;24.00;44.60
14901;DHT22;7542;49.078;9.194;2023-12-20T05:16:56;24.10;44.80
14901;DHT22;7542;49.078;9.194;2023-12-20T05:17:58;24.00;44.60
14901;DHT22;7542;49.078;9.194;2023-12-20T05:19:00;24.10;44.70
14901;DHT22;7542;49.078;9.194;2023-12-20T05:20:04;25.20;45.10
14901;DHT22;7542;49.078;9.194;2023-12-20T05:21:06;24.00;44.60
14901;DHT22;7542;49.078;9.194;2023-12-20T05:22:08;24.00;44.60
14901;DHT22;7542;49.078;9.194;2023-12-20T05:23:11;24.00;44.60
14901;DHT22;7542;49.078;9.194;2023-12-20T05:24:13;24.00;44.60
14901;DHT22;7542;49.078;9.194;2023-12-20T05:25:15;24.00;44.60
14901;DHT22;7542;49.078;9.194;2023-12-20T05:26:17;23.90;44.60
14901;DHT22;7542;49.078;9.194;2023-12-20T05:27:19;24.00;44.60
14901;DHT22;7542;49.078;9.194;2023-12-20T05:28:21;24.00;44.60
14901;DHT22;7542;49.078;9.194;2023-12-20T05:29:23;23.90;44.60
14901;DHT22;7542;49.078;9.194;2023-12-20T05:30:25;24.00;44.60
14901;DHT22;7542;49.078;9.194;2023-12-20T05:31:26;23.90;44.60
14901;DHT22;7542;49.078;9.194;2023-12-20T05:32:28;24.10;44.70
14901;DHT22;7542;49.078;9.194;2023-12-20T05:33:30;24.00;44.60
14901;DHT22;7542;49.078;9.194;2023-12-20T05:34:32;24.00;44.60
14901;DHT22;7542;49.078;9.194;2023-12-20T05:35:35;24.00;44.60
14901;DHT22;7542;49.078;9.194;2023-12-20T05:36:37;24.00;44.60
14901;DHT22;7542;49.078;9.194;2023-12-20T05:37:39;23.90;44.60
14901;DHT22;7542;49.078;9.194;2023-12-20T05:38:41;24.00;44.60
14901;DHT22;7542;49.078;9.194;2023-12-20T05:39:43;24.00;44.60
14901;DHT22;7542;49.078;9.194;2023-12-20T05:40:45;27.20;46.00
14901;DHT22;7542;49.078;9.194;2023-12-20T05:41:47;24.00;44.70
14901;DHT22;7542;49.078;9.194;2023-12-20T05:42:49;23.90;44.60
14901;DHT22;7542;49.078;9.194;2023-12-20T05:43:51;24.00;44.60
14901;DHT22;7542;49.078;9.194;2023-12-20T05:44:53;23.90;44.60
14901;DHT22;7542;49.078;9.194;2023-12-20T05:45:58;24.00;44.60
14901;DHT22;7542;49.078;9.194;2023-12-20T05:47:00;24.40;44.80
14901;DHT22;7542;49.078;9.194;2023-12-20T05:48:02;24.00;44.60
14901;DHT22;7542;49.078;9.194;2023-12-20T05:49:04;24.00;44.60
14901;DHT22;7542;49.078;9.194;2023-12-20T05:50:06;24.00;44.60
14901;DHT22;7542;49.078;9.194;2023-12-20T05:51:11;24.00;44.60
14901;DHT22;7542;49.078;9.194;2023-12-20T05:52:14;24.00;44.60
14901;DHT22;7542;49.078;9.194;2023-12-20T05:53:16;24.10;44.70
14901;DHT22;7542;49.078;9.194;2023-12-20T05:54:18;24.00;44.60
14901;DHT22;7542;49.078;9.194;2023-12-20T05:55:20;24.00;44.70
14901;DHT22;7542;49.078;9.194;2023-12-20T05:56:22;24.00;44.60
14901;DHT22;7542;49.078;9.194;2023-12-20T05:57:24;24.00;44.60
14901;DHT22;7542;49.078;9.194;2023-12-20T05:58:26;23.90;44.70
14901;DHT22;7542;49.078;9.194;2023-12-20T05:59:27;23.90;44.60
14901;DHT22;7542;49.078;9.194;2023-12-20T06:00:29;24.00;44.60
14901;DHT22;7542;49.078;9.194;2023-12-20T06:01:31;26.90;45.50
14901;DHT22;7542;49.078;9.194;2023-12-20T06:02:33;24.00;44.60
14901;DHT22;7542;49.078;9.194;2023-12-20T06:03:35;24.00;44.60
14901;DHT22;7542;49.078;9.194;2023-12-20T06:04:37;24.00;44.70
14901;DHT22;7542;49.078;9.194;2023-12-20T06:05:45;24.20;44.70
14901;DHT22;7542;49.078;9.194;2023-12-20T06:06:47;24.00;44.60
14901;DHT22;7542;49.078;9.194;2023-12-20T06:07:48;24.00;44.70
14901;DHT22;7542;49.078;9.194;2023-12-20T06:08:52;24.00;44.70
14901;DHT22;7542;49.078;9.194;2023-12-20T06:09:54;23.90;44.60
14901;DHT22;7542;49.078;9.194;2023-12-20T06:10:56;23.90;44.70
14901;DHT22;7542;49.078;9.194;2023-12-20T06:11:58;26.70;45.50
14901;DHT22;7542;49.078;9.194;2023-12-20T06:13:00;23.90;44.70
14901;DHT22;7542;49.078;9.194;2023-12-20T06:14:02;24.00;44.70
14901;DHT22;7542;49.078;9.194;2023-12-20T06:15:04;23.90;44.70
14901;DHT22;7542;49.078;9.194;2023-12-20T06:16:07;23.90;44.70
14901;DHT22;7542;49.078;9.194;2023-12-20T06:17:09;23.90;44.70
14901;DHT22;7542;49.078;9.194;2023-12-20T06:18:11;23.90;44.70
14901;DHT22;7542;49.078;9.194;2023-12-20T06:19:13;23.90;44.70
14901;DHT22;7542;49.078;9.194;2023-12-20T06:20:15;24.00;44.70
14901;DHT22;7542;49.078;9.194;2023-12-20T06:21:17;24.00;44.70
14901;DHT22;7542;49.078;9.194;2023-12-20T06:22:19;23.90;44.70
14901;DHT22;7542;49.078;9.194;2023-12-20T06:23:21;23.90;44.70
14901;DHT22;7542;49.078;9.194;2023-12-20T06:24:23;23.90;44.60
14901;DHT22;7542;49.078;9.194;2023-12-20T06:25:29;23.90;44.70
14901;DHT22;7542;49.078;9.194;2023-12-20T06:26:31;23.90;44.70
14901;DHT22;7542;49.078;9.194;2023-12-20T06:27:33;25.00;45.10
14901;DHT22;7542;49.078;9.194;2023-12-20T06:28:35;23.90;44.70
14901;DHT22;7542;49.078;9.194;2023-12-20T06:29:39;23.90;44.70
14901;DHT22;7542;49.078;9.194;2023-12-20T06:30:42;23.90;44.70
14901;DHT22;7542;49.078;9.194;2023-12-20T06:31:44;23.90;44.70
14901;DHT22;7542;49.078;9.194;2023-12-20T06:32:47;24.40;44.90
14901;DHT22;7542;49.078;9.194;2023-12-20T06:33:49;23.90;44.70
14901;DHT22;7542;49.078;9.194;2023-12-20T06:34:59;23.90;44.70
14901;DHT22;7542;49.078;9.194;2023-12-20T06:36:01;26.60;45.60
14901;DHT22;7542;49.078;9.194;2023-12-20T06:37:03;23.90;44.80
14901;DHT22;7542;49.078;9.194;2023-12-20T06:38:05;23.90;44.70
14901;DHT22;7542;49.078;9.194;2023-12-20T06:39:06;23.90;44.70
14901;DHT22;7542;49.078;9.194;2023-12-20T06:40:10;23.90;44.80